createdAt,value
2023-03-06T00:00:01.716Z,41.54
2023-03-06T00:11:08.925Z,40.99
2023-03-06T00:16:05.482Z,41.24
2023-03-06T00:21:02.016Z,41.47
2023-03-06T00:25:58.569Z,41.34
2023-03-06T00:32:01.086Z,41.08
2023-03-06T00:36:57.570Z,41.01
2023-03-06T00:43:08.212Z,40.96
2023-03-06T00:48:04.770Z,41.53
2023-03-06T00:53:01.306Z,41.52
2023-03-06T00:57:57.834Z,41.56
2023-03-06T01:04:08.465Z,41.64
2023-03-06T01:18:58.244Z,41.26
2023-03-06T01:25:08.787Z,41.5
2023-03-06T01:28:51.166Z,41.21
2023-03-06T01:36:07.789Z,40.97
2023-03-06T01:41:04.275Z,40.99
2023-03-06T01:46:00.931Z,41.07
2023-03-06T01:52:11.505Z,41.01
2023-03-06T01:57:08.009Z,41.33
2023-03-06T02:02:04.619Z,40.89
2023-03-06T02:07:01.066Z,41.05
2023-03-06T02:11:57.620Z,40.61
2023-03-06T02:18:08.282Z,40.76
2023-03-06T02:23:04.811Z,40.8
2023-03-06T02:34:03.824Z,41.23
2023-03-06T02:39:08.524Z,40.9
2023-03-06T02:49:01.589Z,42.06
2023-03-06T03:00:08.838Z,42.1
2023-03-06T03:05:05.367Z,41.52
2023-03-06T03:10:01.928Z,41.63
2023-03-06T03:14:58.403Z,41.7
2023-03-06T03:21:09.045Z,41.46
2023-03-06T03:26:05.594Z,41.85
2023-03-06T03:29:48.042Z,42.13
2023-03-06T03:37:04.646Z,42.44
2023-03-06T03:42:01.157Z,43
2023-03-06T03:48:11.823Z,43.15
2023-03-06T03:53:08.330Z,42.82
2023-03-06T03:58:04.876Z,43.07
2023-03-06T04:03:01.405Z,43.16
2023-03-06T04:07:57.963Z,44.02
2023-03-06T04:14:08.595Z,44.87
2023-03-06T04:19:05.186Z,45.07
2023-03-06T04:24:01.673Z,45.23
2023-03-06T04:28:58.208Z,45.55
2023-03-06T04:35:00.672Z,45.74
2023-03-06T04:41:11.352Z,45.38
2023-03-06T04:46:07.921Z,45.59
2023-03-06T04:51:04.404Z,45.68
2023-03-06T05:00:57.617Z,46.14
2023-03-06T05:07:08.155Z,46.17
2023-03-06T05:12:04.664Z,45.91
2023-03-06T05:17:01.246Z,45.98
2023-03-06T05:21:57.741Z,45.96
2023-03-06T05:28:08.411Z,46.1
2023-03-06T05:30:36.681Z,46.03
2023-03-06T05:32:56.781Z,46.13
2023-03-06T05:39:07.628Z,46.26
2023-03-06T05:44:03.949Z,46.32
2023-03-06T05:49:00.468Z,46.48
2023-03-06T05:55:11.134Z,46.28
2023-03-06T06:00:07.662Z,46.06
2023-03-06T06:05:04.204Z,45.62
2023-03-06T06:10:03.177Z,45.91
2023-03-06T06:14:57.278Z,46.26
2023-03-06T06:21:07.929Z,46.46
2023-03-06T06:26:04.491Z,46.96
2023-03-06T06:37:03.480Z,47.17
2023-03-06T06:42:21.016Z,47.38
2023-03-06T06:47:24.359Z,47.1
2023-03-06T06:52:01.303Z,46.6
2023-03-06T06:56:57.791Z,46.48
2023-03-06T07:03:08.488Z,46.72
2023-03-06T07:13:01.517Z,46.99
2023-03-06T07:17:58.056Z,47.14
2023-03-06T07:24:08.739Z,46.99
2023-03-06T07:29:05.247Z,46.81
2023-03-06T07:35:19.584Z,47.3
2023-03-06T07:40:04.261Z,47.38
2023-03-06T07:45:00.794Z,47.42
2023-03-06T07:51:11.514Z,47.32
2023-03-06T07:56:08.020Z,47.74
2023-03-06T08:01:04.542Z,47.54
2023-03-06T08:06:01.073Z,47.67
2023-03-06T08:12:11.725Z,47.81
2023-03-06T08:17:08.259Z,47.79
2023-03-06T08:22:04.776Z,47.13
2023-03-06T08:27:01.311Z,47.05
2023-03-06T08:31:49.780Z,46.95
2023-03-06T08:38:00.322Z,47.37
2023-03-06T08:49:07.544Z,47.06
2023-03-06T08:54:04.061Z,46.92
2023-03-06T08:59:00.590Z,46.53
2023-03-06T09:05:11.280Z,46.21
2023-03-06T09:10:07.804Z,46.16
2023-03-06T09:15:04.318Z,46.24
2023-03-06T09:20:00.827Z,45.98
2023-03-06T09:26:11.515Z,46.6
2023-03-06T09:37:10.488Z,46.66
2023-03-06T09:42:07.108Z,46.32
2023-03-06T09:47:03.631Z,46.07
2023-03-06T09:52:00.150Z,45.89
2023-03-06T09:58:10.791Z,45.69
2023-03-06T10:08:03.838Z,45.28
2023-03-06T10:13:00.382Z,45.47
2023-03-06T10:24:07.570Z,46.06
2023-03-06T10:29:04.155Z,46.71
2023-03-06T10:34:00.630Z,46.7
2023-03-06T10:40:11.352Z,47.17
2023-03-06T10:43:53.758Z,47.5
2023-03-06T10:51:17.991Z,47.83
2023-03-06T10:55:01.279Z,47.76
2023-03-06T11:01:11.584Z,48.09
2023-03-06T11:06:08.140Z,47.85
2023-03-06T11:11:11.885Z,47.11
2023-03-06T11:16:01.205Z,47.77
2023-03-06T11:20:57.716Z,47.71
2023-03-06T11:27:08.372Z,47.37
2023-03-06T11:32:05.069Z,47.96
2023-03-06T11:37:01.441Z,47.68
2023-03-06T11:41:57.979Z,48.95
2023-03-06T11:48:08.667Z,48.81
2023-03-06T11:53:05.206Z,48.54
2023-03-06T11:59:07.672Z,49.98
2023-03-06T12:04:04.196Z,49.98
2023-03-06T12:13:57.293Z,48.78
2023-03-06T12:20:07.946Z,49.34
2023-03-06T12:25:04.471Z,48.91
2023-03-06T12:41:16.420Z,48.07
2023-03-06T12:43:44.660Z,48.57
2023-03-06T12:46:12.936Z,48.42
2023-03-06T12:48:41.160Z,48.68
2023-03-06T12:51:09.552Z,48.35
2023-03-06T12:53:37.725Z,48.31
2023-03-06T12:56:06.016Z,48.26
2023-03-06T12:58:34.233Z,48.07
2023-03-06T13:03:31.113Z,49.11
2023-03-06T13:06:07.216Z,48.85
2023-03-06T13:12:09.721Z,49.51
2023-03-06T13:17:06.271Z,50.24
2023-03-06T13:22:02.774Z,50.24
2023-03-06T13:33:09.987Z,50.83
2023-03-06T13:38:06.561Z,50.86
2023-03-06T13:43:03.058Z,50.89
2023-03-06T13:48:21.371Z,50.64
2023-03-06T13:54:10.367Z,50.75
2023-03-06T13:59:06.794Z,50.69
2023-03-06T14:04:03.302Z,50.55
2023-03-06T14:08:51.670Z,51.1
2023-03-06T14:15:02.304Z,50.82
2023-03-06T14:19:58.848Z,50.91
2023-03-06T14:26:09.519Z,50.89
2023-03-06T14:31:06.066Z,50.73
2023-03-06T14:36:02.636Z,50.18
2023-03-06T14:40:59.103Z,49.7
2023-03-06T14:47:09.757Z,50.1
2023-03-06T14:52:06.271Z,49.86
2023-03-06T14:57:02.840Z,49.48
2023-03-06T15:13:06.529Z,48.59
2023-03-06T15:18:03.109Z,48.31
2023-03-06T15:22:59.622Z,48.31
2023-03-06T15:29:10.589Z,47.83
2023-03-06T15:34:06.858Z,47.96
2023-03-06T15:39:03.352Z,47.62
2023-03-06T15:43:59.890Z,47.56
2023-03-06T15:50:10.592Z,47.64
2023-03-06T15:55:07.110Z,46.58
2023-03-06T16:00:03.671Z,46.62
2023-03-06T16:05:00.221Z,46.96
2023-03-06T16:09:56.691Z,47.64
2023-03-06T16:15:59.176Z,47.7
2023-03-06T16:22:09.826Z,47.24
2023-03-06T16:27:06.342Z,47.43
2023-03-06T16:32:02.925Z,46.61
2023-03-06T16:36:59.454Z,46.84
2023-03-06T16:43:10.128Z,46.43
2023-03-06T16:53:03.165Z,46.44
2023-03-06T16:57:59.709Z,46.39
2023-03-06T17:04:10.385Z,46.63
2023-03-06T17:09:06.870Z,46.49
2023-03-06T17:14:03.528Z,46.39
2023-03-06T17:19:00.013Z,44.96
2023-03-06T17:25:02.434Z,44.39
2023-03-06T17:36:09.664Z,45.16
2023-03-06T17:41:06.162Z,44.05
2023-03-06T17:46:02.735Z,45.03
2023-03-06T17:50:59.221Z,44.98
2023-03-06T17:57:09.854Z,44.47
2023-03-06T18:02:06.640Z,44.26
2023-03-06T18:07:02.941Z,44.39
2023-03-06T18:11:59.493Z,44.59
2023-03-06T18:18:10.126Z,43.71
2023-03-06T18:21:52.518Z,43.77
2023-03-06T18:29:09.176Z,44.59
2023-03-06T18:34:05.670Z,44.31
2023-03-06T18:39:02.245Z,45.04
2023-03-06T18:43:58.761Z,44.81
2023-03-06T18:50:09.447Z,44.71
2023-03-06T18:55:05.978Z,44.73
2023-03-06T19:00:02.472Z,44.78
2023-03-06T19:04:59.023Z,44.17
2023-03-06T19:12:03.393Z,44.85
2023-03-06T19:16:59.942Z,44.93
2023-03-06T19:33:03.672Z,45.19
2023-03-06T19:38:00.214Z,45.07
2023-03-06T19:42:56.720Z,44.98
2023-03-06T19:47:53.252Z,44.97
2023-03-06T19:54:03.940Z,44.94
2023-03-06T19:59:00.436Z,45.41
2023-03-06T20:03:56.990Z,46.01
2023-03-06T20:08:53.548Z,45.76
2023-03-06T20:15:04.196Z,45.94
2023-03-06T20:20:00.744Z,45.6
2023-03-06T20:23:43.085Z,45.54
2023-03-06T20:35:56.312Z,45.73
2023-03-06T20:40:52.796Z,45.59
2023-03-06T20:47:03.436Z,45.95
2023-03-06T20:52:00.006Z,45.7
2023-03-06T20:56:56.538Z,45.51
2023-03-06T21:08:03.712Z,44.86
2023-03-06T21:13:00.212Z,44.55
2023-03-06T21:17:56.758Z,44.72
2023-03-06T21:24:07.455Z,44.93
2023-03-06T21:28:55.811Z,44.58
2023-03-06T21:33:52.272Z,44.49
2023-03-06T21:40:02.990Z,44.96
2023-03-06T21:44:59.513Z,44.49
2023-03-06T21:49:56.055Z,44.5
2023-03-06T21:54:52.622Z,44.19
2023-03-06T21:59:49.125Z,44.87
2023-03-06T22:05:59.784Z,44.91
2023-03-06T22:10:56.326Z,44.9
2023-03-06T22:15:52.894Z,44.75
2023-03-06T22:22:03.489Z,44.66
2023-03-06T22:26:51.833Z,44.49
2023-03-06T22:33:02.477Z,44.33
2023-03-06T22:37:59.019Z,44.56
2023-03-06T22:42:55.591Z,44.54
2023-03-06T22:47:57.068Z,44.52
2023-03-06T22:54:02.819Z,45.1
2023-03-06T22:58:59.302Z,44.97
2023-03-06T23:03:55.840Z,45.04
2023-03-06T23:08:52.375Z,44.78
2023-03-06T23:15:03.069Z,43.72
2023-03-06T23:19:59.578Z,44.15
2023-03-06T23:24:56.143Z,43.89
2023-03-06T23:31:06.825Z,44.05
2023-03-06T23:36:03.335Z,44.17
2023-03-06T23:40:59.828Z,44.18
2023-03-06T23:45:56.399Z,44.26
2023-03-06T23:50:52.883Z,43.73
2023-03-06T23:57:03.551Z,43.92
